Time;durP1;ratioP1;P1;durP2;ratioP2;P2;SDS_P1;SDS_P2;PMS_P1;PMS_P2;Temp;Humidity;BMP_temperature;BMP_pressure;BME280_temperature;BME280_humidity;BME280_pressure;Samples;Min_cycle;Max_cycle;Signal;HPM_P1;HPM_P2
2021/08/17 00:00:36;;;;;;;2.03;1.50;;;25.90;55.60;;;;;;6235972;23;20395;-82
2021/08/17 00:03:03;;;;;;;1.83;1.60;;;25.90;56.20;;;;;;6211214;23;20363;-81
2021/08/17 00:05:28;;;;;;;2.20;2.00;;;25.90;55.70;;;;;;6184279;23;20391;-82
2021/08/17 00:07:56;;;;;;;1.90;1.63;;;25.90;55.60;;;;;;6210147;23;20382;-82
2021/08/17 00:10:23;;;;;;;2.10;1.53;;;25.90;55.60;;;;;;6160932;23;20163;-82
2021/08/17 00:12:49;;;;;;;2.00;1.70;;;25.90;55.60;;;;;;6184661;23;20379;-82
2021/08/17 00:15:16;;;;;;;1.90;1.70;;;25.90;55.60;;;;;;6159989;23;20394;-82
2021/08/17 00:17:42;;;;;;;2.10;1.70;;;25.90;55.60;;;;;;6210494;23;20374;-82
2021/08/17 00:20:10;;;;;;;1.80;1.43;;;25.90;55.60;;;;;;6159375;23;20368;-82
2021/08/17 00:22:37;;;;;;;2.23;1.73;;;25.90;55.60;;;;;;6210267;23;20397;-81
2021/08/17 00:25:05;;;;;;;1.97;1.57;;;25.90;55.60;;;;;;6185062;23;20431;-81
2021/08/17 00:27:32;;;;;;;2.00;1.50;;;25.90;55.60;;;;;;6184566;23;20406;-82
2021/08/17 00:29:58;;;;;;;2.40;1.93;;;25.90;55.60;;;;;;6183723;23;20379;-82
2021/08/17 00:32:24;;;;;;;1.80;1.60;;;25.90;55.60;;;;;;6183651;23;20422;-82
2021/08/17 00:34:51;;;;;;;2.07;1.87;;;25.90;55.60;;;;;;6183835;23;20442;-82
2021/08/17 00:37:19;;;;;;;1.97;1.60;;;25.90;55.60;;;;;;6210539;23;20379;-82
2021/08/17 00:39:45;;;;;;;2.70;1.77;;;25.90;55.60;;;;;;6159806;23;20390;-82
2021/08/17 00:42:11;;;;;;;2.83;1.70;;;25.90;56.20;;;;;;6185414;23;20390;-82
2021/08/17 00:44:38;;;;;;;1.83;1.57;;;25.90;55.60;;;;;;6159875;23;20409;-82
2021/08/17 00:47:04;;;;;;;1.40;1.20;;;25.90;55.60;;;;;;6209954;23;20489;-82
2021/08/17 00:49:32;;;;;;;2.03;1.83;;;25.90;55.60;;;;;;6184755;23;20384;-82
2021/08/17 00:52:09;;;;;;;2.17;1.63;;;25.90;55.60;;;;;;6159143;23;20426;-82
2021/08/17 00:54:44;;;;;;;1.53;1.40;;;25.90;55.60;;;;;;6135169;23;20379;-82
2021/08/17 00:57:15;;;;;;;1.93;1.70;;;25.90;55.60;;;;;;6182992;23;20416;-82
2021/08/17 00:59:42;;;;;;;2.07;1.73;;;25.80;55.60;;;;;;6182789;23;20376;-82
2021/08/17 01:02:08;;;;;;;2.23;1.93;;;25.80;55.50;;;;;;6227948;23;20413;-82
2021/08/17 01:04:35;;;;;;;2.00;1.77;;;25.80;55.60;;;;;;6238764;23;20397;-82
2021/08/17 01:07:02;;;;;;;2.00;1.73;;;25.80;55.60;;;;;;6239631;23;20409;-82
2021/08/17 01:09:29;;;;;;;2.10;1.73;;;25.80;55.60;;;;;;6238748;23;20398;-82
2021/08/17 01:11:55;;;;;;;2.27;1.60;;;25.80;55.60;;;;;;6240078;23;20418;-81
2021/08/17 01:14:24;;;;;;;1.60;1.50;;;25.80;55.60;;;;;;6240355;23;20390;-81
2021/08/17 01:16:50;;;;;;;1.70;1.57;;;25.80;55.60;;;;;;6239114;23;20371;-81
2021/08/17 01:19:19;;;;;;;2.63;1.77;;;25.80;55.50;;;;;;6263937;23;20378;-82
2021/08/17 01:21:46;;;;;;;2.60;1.80;;;25.80;55.50;;;;;;6239978;23;20496;-82
2021/08/17 01:24:13;;;;;;;1.97;1.70;;;25.80;55.60;;;;;;6238785;23;20389;-82
2021/08/17 01:26:40;;;;;;;2.13;1.80;;;25.80;55.60;;;;;;6239734;23;20374;-82
2021/08/17 01:29:10;;;;;;;2.10;1.73;;;25.80;55.60;;;;;;6240145;23;20362;-82
2021/08/17 01:31:38;;;;;;;2.30;1.70;;;25.80;55.60;;;;;;6240651;23;20406;-82
2021/08/17 01:34:05;;;;;;;2.40;1.67;;;25.80;55.60;;;;;;6237847;23;20372;-82
2021/08/17 01:36:35;;;;;;;2.33;1.83;;;25.80;55.60;;;;;;6213301;23;20386;-82
2021/08/17 01:39:01;;;;;;;2.60;2.00;;;25.80;55.60;;;;;;6214949;23;20382;-82
2021/08/17 01:41:27;;;;;;;2.40;2.00;;;25.80;55.60;;;;;;6238248;23;20409;-82
2021/08/17 01:43:53;;;;;;;2.20;2.00;;;25.80;55.60;;;;;;6239567;23;20370;-82
2021/08/17 01:46:19;;;;;;;2.17;1.60;;;25.80;55.60;;;;;;6237517;23;20386;-82
2021/08/17 01:48:46;;;;;;;2.07;1.87;;;25.80;55.60;;;;;;6239587;23;20378;-82
2021/08/17 01:51:14;;;;;;;2.50;1.63;;;25.80;55.50;;;;;;6239269;23;20422;-82
2021/08/17 01:53:43;;;;;;;1.87;1.60;;;25.80;55.60;;;;;;6238838;23;20359;-82
2021/08/17 01:56:24;;;;;;;1.83;1.50;;;25.80;55.60;;;;;;6264124;22;20370;-82
2021/08/17 01:58:49;;;;;;;2.73;1.83;;;25.80;55.60;;;;;;6238784;23;20451;-82
2021/08/17 02:01:16;;;;;;;2.00;1.80;;;25.80;55.60;;;;;;6226149;23;20394;-81
2021/08/17 02:03:42;;;;;;;2.73;2.00;;;25.80;55.60;;;;;;6209941;23;20147;-82
2021/08/17 02:06:09;;;;;;;2.00;1.80;;;25.80;55.70;;;;;;6183332;23;20410;-82
2021/08/17 02:08:35;;;;;;;1.87;1.70;;;25.80;55.60;;;;;;6209007;23;20175;-82
2021/08/17 02:11:01;;;;;;;2.00;1.70;;;25.80;55.60;;;;;;6183672;23;20422;-82
2021/08/17 02:13:29;;;;;;;2.03;1.73;;;25.80;55.60;;;;;;6208894;23;20370;-82
2021/08/17 02:15:57;;;;;;;2.20;1.90;;;25.80;55.60;;;;;;6209098;23;20377;-82
2021/08/17 02:18:22;;;;;;;1.93;1.77;;;25.80;55.90;;;;;;6209778;23;20371;-82
2021/08/17 02:20:48;;;;;;;1.80;1.60;;;25.80;55.70;;;;;;6208841;23;20698;-82
2021/08/17 02:23:14;;;;;;;1.70;1.60;;;25.70;55.60;;;;;;6183470;23;20155;-82
2021/08/17 02:25:40;;;;;;;2.97;2.30;;;25.80;55.60;;;;;;6183698;23;20387;-82
2021/08/17 02:28:06;;;;;;;1.73;1.50;;;25.70;55.60;;;;;;6209706;23;20522;-82
2021/08/17 02:30:32;;;;;;;2.10;1.90;;;25.70;55.60;;;;;;6209260;23;20418;-82
2021/08/17 02:32:58;;;;;;;2.80;1.97;;;25.70;55.60;;;;;;6209013;23;20379;-82
2021/08/17 02:35:24;;;;;;;2.27;1.90;;;25.70;55.60;;;;;;6183356;23;20375;-82
2021/08/17 02:37:50;;;;;;;3.43;2.00;;;25.70;55.60;;;;;;6209470;23;20190;-82
2021/08/17 02:40:16;;;;;;;2.43;1.93;;;25.70;55.60;;;;;;6184326;23;20211;-81
2021/08/17 02:42:41;;;;;;;2.07;1.87;;;25.70;55.60;;;;;;6183378;23;20379;-82
2021/08/17 02:45:08;;;;;;;2.20;1.90;;;25.70;55.70;;;;;;6209213;23;20151;-83
2021/08/17 02:47:34;;;;;;;2.70;1.87;;;25.70;55.60;;;;;;6209634;23;20183;-82
2021/08/17 02:50:00;;;;;;;1.87;1.70;;;25.70;55.60;;;;;;6208893;23;20371;-82
2021/08/17 02:52:26;;;;;;;2.27;1.97;;;25.70;55.70;;;;;;6208834;23;20411;-82
2021/08/17 02:54:51;;;;;;;2.30;1.90;;;25.70;55.70;;;;;;6209018;23;20148;-82
2021/08/17 02:57:19;;;;;;;2.27;1.80;;;25.70;55.70;;;;;;6209071;23;20430;-82
2021/08/17 02:59:44;;;;;;;2.50;1.67;;;25.70;55.70;;;;;;6183789;23;20159;-82
2021/08/17 03:02:10;;;;;;;2.17;1.73;;;25.70;55.70;;;;;;6227804;23;20402;-83
2021/08/17 03:04:38;;;;;;;2.27;1.90;;;25.70;55.70;;;;;;6239140;23;20181;-82
2021/08/17 03:07:05;;;;;;;2.60;2.23;;;25.70;55.70;;;;;;6213903;23;20159;-82
2021/08/17 03:09:32;;;;;;;2.10;1.90;;;25.70;55.60;;;;;;6240212;23;20405;-82
2021/08/17 03:12:01;;;;;;;2.40;1.83;;;25.70;55.70;;;;;;6265235;23;20445;-82
2021/08/17 03:14:28;;;;;;;2.03;1.80;;;25.70;55.70;;;;;;6239913;23;20381;-82
2021/08/17 03:16:54;;;;;;;2.20;1.80;;;25.70;55.70;;;;;;6239947;23;20438;-82
2021/08/17 03:19:24;;;;;;;1.60;1.47;;;25.70;55.60;;;;;;6239944;23;20393;-82
2021/08/17 03:21:53;;;;;;;1.77;1.60;;;25.70;55.70;;;;;;6240040;23;20393;-82
2021/08/17 03:24:22;;;;;;;1.93;1.67;;;25.70;55.70;;;;;;6240772;23;20382;-82
2021/08/17 03:26:49;;;;;;;2.63;2.33;;;25.70;55.70;;;;;;6240654;23;20414;-82
2021/08/17 03:29:15;;;;;;;2.57;1.93;;;25.70;55.70;;;;;;6240343;23;20370;-81
2021/08/17 03:31:44;;;;;;;2.30;2.00;;;25.70;55.70;;;;;;6241381;23;20448;-82
2021/08/17 03:34:10;;;;;;;2.27;1.90;;;25.70;55.70;;;;;;6240493;23;20371;-82
2021/08/17 03:36:38;;;;;;;2.67;2.03;;;25.70;55.70;;;;;;6240750;23;20441;-82
2021/08/17 03:39:04;;;;;;;2.17;1.67;;;25.70;55.70;;;;;;6215162;23;20726;-82
2021/08/17 03:41:31;;;;;;;2.17;1.77;;;25.70;55.80;;;;;;6239622;23;20386;-82
2021/08/17 03:43:58;;;;;;;2.10;1.90;;;25.60;55.70;;;;;;6240291;23;20442;-82
2021/08/17 03:46:24;;;;;;;2.60;1.60;;;25.60;55.70;;;;;;6240198;23;20397;-82
2021/08/17 03:48:50;;;;;;;2.43;1.90;;;25.60;55.70;;;;;;6240357;23;20401;-82
2021/08/17 03:51:16;;;;;;;2.43;1.93;;;25.60;55.70;;;;;;6265083;23;20182;-82
2021/08/17 03:53:41;;;;;;;2.53;2.33;;;25.60;55.70;;;;;;6240800;23;20147;-82
2021/08/17 03:56:07;;;;;;;1.73;1.60;;;25.60;55.70;;;;;;6240456;23;20143;-82
2021/08/17 03:58:33;;;;;;;2.00;1.80;;;25.60;55.70;;;;;;6239469;23;20155;-82
2021/08/17 04:00:59;;;;;;;2.30;2.10;;;25.60;55.70;;;;;;6264547;23;20171;-82
2021/08/17 04:03:24;;;;;;;1.53;1.43;;;25.60;55.70;;;;;;6265081;23;20203;-82
2021/08/17 04:05:50;;;;;;;2.03;1.53;;;25.60;55.70;;;;;;6239237;23;20143;-81
2021/08/17 04:08:16;;;;;;;2.00;1.80;;;25.60;55.70;;;;;;6240316;23;20143;-82
2021/08/17 04:10:46;;;;;;;2.03;1.80;;;25.60;55.70;;;;;;6238732;23;20178;-82
2021/08/17 04:13:14;;;;;;;2.40;2.20;;;25.60;55.60;;;;;;6240358;23;20157;-81
2021/08/17 04:15:40;;;;;;;1.97;1.77;;;25.60;55.60;;;;;;6239404;23;20377;-82
2021/08/17 04:18:06;;;;;;;2.60;1.87;;;25.60;55.70;;;;;;6239413;23;20447;-82
2021/08/17 04:23:59;;;;;;;2.20;2.00;;;25.60;55.60;;;;;;6234787;23;20373;-82
2021/08/17 04:26:25;;;;;;;2.13;1.93;;;25.50;55.50;;;;;;6233669;23;20427;-84
2021/08/17 04:28:50;;;;;;;2.03;1.60;;;25.60;55.70;;;;;;6231803;23;20375;-83
2021/08/17 04:31:16;;;;;;;1.90;1.60;;;25.50;55.60;;;;;;6230939;23;20434;-84
2021/08/17 04:33:45;;;;;;;2.20;1.70;;;25.60;55.40;;;;;;6254975;23;20151;-83
2021/08/17 04:36:12;;;;;;;2.20;2.00;;;25.60;55.40;;;;;;6229668;23;20386;-84
2021/08/17 04:38:37;;;;;;;4.30;1.80;;;25.60;55.50;;;;;;6255280;23;20378;-82
2021/08/17 04:41:03;;;;;;;2.00;1.80;;;25.50;55.40;;;;;;6229675;23;20397;-82
2021/08/17 04:43:29;;;;;;;2.40;1.93;;;25.60;55.50;;;;;;6231302;23;20206;-82
2021/08/17 04:45:54;;;;;;;2.10;1.80;;;25.60;55.60;;;;;;6256759;23;20212;-84
2021/08/17 04:48:20;;;;;;;2.37;1.90;;;25.60;55.60;;;;;;6231585;23;20143;-82
2021/08/17 04:50:47;;;;;;;2.77;2.43;;;25.60;55.50;;;;;;6255489;23;20190;-84
2021/08/17 04:53:13;;;;;;;1.80;1.70;;;25.60;55.60;;;;;;6231906;23;20139;-84
2021/08/17 04:55:39;;;;;;;3.37;2.33;;;25.60;55.70;;;;;;6230479;23;20379;-83
2021/08/17 04:58:05;;;;;;;2.33;1.87;;;25.60;55.60;;;;;;6230493;23;20386;-84
2021/08/17 05:00:31;;;;;;;1.97;1.53;;;25.60;55.60;;;;;;6227716;23;20425;-84
2021/08/17 05:02:57;;;;;;;2.80;2.50;;;25.60;55.60;;;;;;6201724;23;20414;-82
2021/08/17 05:05:24;;;;;;;2.13;1.93;;;25.60;55.60;;;;;;6176330;23;20455;-83
2021/08/17 05:07:51;;;;;;;2.80;2.07;;;25.60;55.50;;;;;;6177507;23;20447;-84
2021/08/17 05:10:18;;;;;;;2.63;1.87;;;25.60;55.50;;;;;;6176664;23;20391;-84
2021/08/17 05:12:45;;;;;;;2.70;2.50;;;25.60;55.50;;;;;;6177408;23;20379;-84
2021/08/17 05:15:11;;;;;;;2.57;1.80;;;25.60;55.40;;;;;;6177100;23;20399;-84
2021/08/17 05:17:37;;;;;;;4.37;2.20;;;25.60;55.40;;;;;;6175949;23;20430;-83
2021/08/17 05:20:09;;;;;;;2.20;1.90;;;25.70;55.40;;;;;;6176637;23;20379;-84
2021/08/17 05:22:34;;;;;;;1.90;1.70;;;25.70;55.40;;;;;;6176210;23;20171;-83
2021/08/17 05:25:00;;;;;;;2.10;1.90;;;25.70;55.40;;;;;;6202294;23;20363;-82
2021/08/17 05:27:26;;;;;;;1.60;1.50;;;25.70;55.40;;;;;;6200949;23;20155;-83
2021/08/17 05:29:53;;;;;;;2.83;2.47;;;25.70;55.30;;;;;;6149457;23;20375;-83
2021/08/17 05:32:22;;;;;;;3.60;2.40;;;25.70;55.30;;;;;;6174984;23;20539;-82
2021/08/17 05:34:48;;;;;;;2.13;1.80;;;25.70;55.30;;;;;;6174912;23;20385;-84
2021/08/17 05:37:14;;;;;;;3.43;2.10;;;25.70;55.30;;;;;;6201326;23;20898;-85
2021/08/17 05:39:42;;;;;;;1.90;1.70;;;25.70;55.30;;;;;;6175547;23;20480;-83
2021/08/17 05:42:11;;;;;;;2.43;1.93;;;25.70;55.30;;;;;;6201158;23;20481;-83
2021/08/17 05:44:41;;;;;;;3.23;2.50;;;25.70;55.30;;;;;;6200403;23;20394;-83
2021/08/17 05:47:08;;;;;;;2.63;2.00;;;25.70;55.30;;;;;;6174654;23;20457;-83
2021/08/17 05:49:36;;;;;;;1.80;1.70;;;25.70;55.30;;;;;;6200893;23;20439;-83
2021/08/17 05:52:03;;;;;;;2.40;1.83;;;25.70;55.30;;;;;;6200122;23;20415;-83
2021/08/17 05:54:29;;;;;;;2.33;2.13;;;25.70;55.80;;;;;;6175386;23;20402;-83
2021/08/17 05:56:58;;;;;;;2.07;1.80;;;25.70;55.30;;;;;;6201419;23;20370;-83
2021/08/17 05:59:25;;;;;;;2.50;2.10;;;25.70;55.30;;;;;;6201014;23;20227;-83
2021/08/17 06:01:51;;;;;;;2.40;2.00;;;25.70;55.20;;;;;;6202251;23;20398;-83
2021/08/17 06:04:17;;;;;;;2.67;2.20;;;25.70;55.20;;;;;;6178116;23;20407;-83
2021/08/17 06:06:42;;;;;;;2.13;1.93;;;25.70;55.20;;;;;;6176335;23;20418;-83
2021/08/17 06:09:08;;;;;;;2.20;2.00;;;25.70;55.20;;;;;;6176372;23;20610;-84
2021/08/17 06:11:34;;;;;;;2.30;1.80;;;25.70;55.20;;;;;;6203519;23;20175;-83
2021/08/17 06:13:59;;;;;;;4.10;1.97;;;25.70;55.20;;;;;;6201005;23;20175;-83
2021/08/17 06:16:25;;;;;;;2.20;2.00;;;25.70;55.20;;;;;;6201544;23;20150;-83
2021/08/17 06:18:51;;;;;;;3.13;2.30;;;25.70;55.20;;;;;;6175417;23;20238;-83
2021/08/17 06:21:16;;;;;;;2.60;2.07;;;25.70;55.20;;;;;;6173686;23;20238;-83
2021/08/17 06:23:42;;;;;;;2.43;2.23;;;25.70;55.20;;;;;;6199778;23;20156;-83
2021/08/17 06:26:08;;;;;;;5.60;2.77;;;25.70;55.20;;;;;;6174760;23;20183;-83
2021/08/17 06:28:33;;;;;;;2.77;2.57;;;25.70;55.20;;;;;;6201002;23;20208;-83
2021/08/17 06:30:59;;;;;;;3.20;2.10;;;25.70;55.10;;;;;;6199902;23;20606;-83
2021/08/17 06:33:24;;;;;;;2.00;1.80;;;25.70;55.10;;;;;;6201153;23;20147;-84
2021/08/17 06:35:50;;;;;;;2.07;1.87;;;25.70;55.10;;;;;;6173998;23;20162;-84
2021/08/17 06:38:16;;;;;;;2.60;2.30;;;25.70;55.00;;;;;;6175158;23;20174;-83
2021/08/17 06:40:42;;;;;;;2.23;2.03;;;25.80;55.20;;;;;;6173512;23;20160;-82
2021/08/17 06:43:07;;;;;;;1.97;1.60;;;25.80;55.10;;;;;;6202012;23;20144;-83
2021/08/17 06:45:33;;;;;;;2.00;1.70;;;25.80;55.10;;;;;;6176521;23;20179;-82
2021/08/17 06:47:59;;;;;;;2.53;2.33;;;25.80;55.10;;;;;;6175993;23;20277;-82
2021/08/17 06:50:24;;;;;;;3.27;2.43;;;25.80;55.10;;;;;;6175935;23;20151;-83
2021/08/17 06:52:50;;;;;;;2.40;1.57;;;25.70;55.00;;;;;;6202515;23;20147;-83
2021/08/17 06:55:16;;;;;;;2.70;1.93;;;25.80;55.00;;;;;;6202429;23;20163;-83
2021/08/17 06:57:42;;;;;;;1.80;1.70;;;25.80;55.00;;;;;;6202376;23;20152;-84
2021/08/17 07:03:30;;;;;;;3.20;1.90;;;25.80;55.00;;;;;;6217362;23;20179;-83
2021/08/17 07:05:56;;;;;;;2.50;2.00;;;25.70;55.00;;;;;;6177147;23;20410;-83
2021/08/17 07:08:22;;;;;;;2.17;1.97;;;25.80;55.00;;;;;;6177244;23;20383;-83
2021/08/17 07:10:48;;;;;;;3.63;2.47;;;25.80;55.00;;;;;;6176387;23;20453;-83
2021/08/17 07:13:14;;;;;;;2.40;1.90;;;25.80;55.00;;;;;;6203711;23;20154;-82
2021/08/17 07:15:40;;;;;;;2.30;2.00;;;25.80;55.00;;;;;;6176700;23;20379;-83
2021/08/17 07:18:06;;;;;;;2.70;1.67;;;25.80;55.00;;;;;;6201791;23;20148;-83
2021/08/17 07:20:32;;;;;;;2.13;1.90;;;25.80;55.00;;;;;;6175127;23;20387;-82
2021/08/17 07:22:57;;;;;;;3.00;2.43;;;25.80;55.00;;;;;;6175735;23;20224;-84
2021/08/17 07:25:23;;;;;;;2.80;2.20;;;25.80;55.00;;;;;;6201624;23;20387;-83
2021/08/17 07:27:49;;;;;;;2.70;2.30;;;25.80;55.00;;;;;;6201736;23;20203;-83
2021/08/17 07:30:15;;;;;;;2.37;1.90;;;25.80;54.90;;;;;;6174195;23;20152;-84
2021/08/17 07:32:46;;;;;;;2.57;2.00;;;25.80;54.90;;;;;;6201261;23;20148;-83
2021/08/17 07:35:14;;;;;;;2.10;1.83;;;25.90;54.90;;;;;;6175237;23;20148;-82
2021/08/17 07:37:42;;;;;;;2.13;1.73;;;25.80;54.90;;;;;;6201628;23;20372;-83
2021/08/17 07:40:09;;;;;;;2.30;2.10;;;25.80;54.90;;;;;;6174672;23;20379;-82
2021/08/17 07:42:35;;;;;;;2.20;1.87;;;25.80;54.80;;;;;;6200648;23;20382;-83
2021/08/17 07:45:02;;;;;;;3.23;2.83;;;25.90;54.90;;;;;;6175619;23;20387;-82
2021/08/17 07:47:28;;;;;;;2.20;1.83;;;25.80;54.90;;;;;;6174710;23;20383;-82
2021/08/17 07:49:53;;;;;;;3.00;1.93;;;25.90;54.90;;;;;;6175082;23;20410;-83
2021/08/17 07:52:20;;;;;;;3.50;1.90;;;25.80;54.80;;;;;;6200764;23;20172;-83
2021/08/17 07:54:46;;;;;;;2.43;1.60;;;25.80;54.80;;;;;;6175493;23;20202;-83
2021/08/17 07:57:12;;;;;;;2.40;2.03;;;25.80;54.80;;;;;;6177532;23;20383;-83
2021/08/17 07:59:38;;;;;;;2.33;1.70;;;25.80;54.80;;;;;;6175200;23;20410;-83
2021/08/17 08:02:03;;;;;;;2.13;1.80;;;25.80;55.40;;;;;;6200011;23;20147;-83
2021/08/17 08:04:29;;;;;;;2.50;1.90;;;25.80;54.80;;;;;;6200019;23;20175;-84
2021/08/17 08:06:55;;;;;;;2.50;1.90;;;25.80;54.90;;;;;;6174436;23;20166;-84
2021/08/17 08:09:21;;;;;;;1.97;1.60;;;25.80;54.80;;;;;;6173074;23;20449;-83
2021/08/17 08:11:47;;;;;;;3.00;1.80;;;25.80;55.30;;;;;;6173778;23;20262;-83
2021/08/17 08:14:12;;;;;;;2.10;1.90;;;25.80;54.80;;;;;;6174105;23;20159;-84
2021/08/17 08:16:38;;;;;;;2.17;1.80;;;25.80;54.80;;;;;;6174783;23;20243;-83
2021/08/17 08:19:04;;;;;;;2.97;2.67;;;25.80;54.80;;;;;;6174070;23;20155;-83
2021/08/17 08:21:32;;;;;;;1.80;1.50;;;25.80;54.80;;;;;;6200023;23;20148;-83
2021/08/17 08:23:58;;;;;;;3.00;2.13;;;25.80;54.80;;;;;;6199636;23;20379;-83
2021/08/17 08:26:24;;;;;;;2.80;2.30;;;25.80;54.80;;;;;;6173752;23;20441;-83
2021/08/17 08:28:49;;;;;;;2.53;2.00;;;25.80;54.80;;;;;;6173567;23;20466;-83
2021/08/17 08:31:15;;;;;;;2.63;2.20;;;25.80;54.80;;;;;;6173534;23;20199;-83
2021/08/17 08:33:41;;;;;;;2.53;2.33;;;25.80;54.80;;;;;;6172674;23;20152;-83
2021/08/17 08:36:09;;;;;;;2.40;2.07;;;25.80;54.80;;;;;;6172830;23;20152;-83
2021/08/17 08:38:35;;;;;;;3.03;2.30;;;25.80;55.30;;;;;;6199508;23;20144;-83
2021/08/17 08:44:23;;;;;;;5.80;2.47;;;25.80;54.70;;;;;;6199664;23;20163;-83
2021/08/17 08:46:50;;;;;;;2.37;1.90;;;25.80;54.70;;;;;;6200381;23;20375;-83
2021/08/17 08:49:17;;;;;;;3.33;2.33;;;25.80;54.70;;;;;;6173371;23;20159;-83
2021/08/17 08:51:43;;;;;;;2.77;2.50;;;25.80;54.80;;;;;;6174471;23;20418;-83
2021/08/17 08:54:09;;;;;;;2.60;2.40;;;25.80;54.80;;;;;;6173612;23;20379;-83
2021/08/17 08:56:34;;;;;;;2.57;2.10;;;25.80;54.70;;;;;;6174020;23;20167;-83
2021/08/17 08:59:01;;;;;;;2.40;1.97;;;25.80;54.80;;;;;;6173362;23;20464;-83
2021/08/17 09:01:26;;;;;;;2.80;2.33;;;25.80;54.80;;;;;;6199848;23;20215;-83
2021/08/17 09:07:14;;;;;;;2.13;1.87;;;25.80;54.70;;;;;;6199620;23;20155;-83
2021/08/17 09:09:40;;;;;;;2.27;2.07;;;25.80;54.80;;;;;;6198957;23;20372;-83
2021/08/17 09:12:05;;;;;;;5.10;2.43;;;25.80;54.80;;;;;;6199071;23;20179;-83
2021/08/17 09:14:33;;;;;;;3.03;2.30;;;25.80;54.80;;;;;;6172549;23;20155;-83
2021/08/17 09:17:01;;;;;;;2.93;2.60;;;25.80;54.90;;;;;;6199381;23;20571;-83
2021/08/17 09:19:42;;;;;;;3.90;2.47;;;25.80;54.80;;;;;;6172793;23;20438;-83
2021/08/17 09:22:23;;;;;;;2.67;2.40;;;25.80;54.80;;;;;;6172217;23;20378;-83
2021/08/17 09:24:51;;;;;;;2.77;2.17;;;25.80;54.70;;;;;;6197974;23;20379;-83
2021/08/17 09:27:23;;;;;;;2.63;2.17;;;25.80;54.80;;;;;;6199078;23;20721;-83
2021/08/17 09:29:59;;;;;;;2.30;1.90;;;25.80;54.70;;;;;;6198865;23;20367;-83
2021/08/17 09:32:26;;;;;;;2.57;2.37;;;25.80;54.70;;;;;;6198554;23;20407;-83
2021/08/17 09:34:54;;;;;;;4.47;2.30;;;25.80;54.70;;;;;;6199771;23;20374;-83
2021/08/17 09:37:28;;;;;;;3.17;2.30;;;25.80;54.70;;;;;;6198850;23;20371;-83
2021/08/17 09:39:55;;;;;;;2.70;2.10;;;25.90;54.70;;;;;;6172288;23;20375;-83
2021/08/17 09:42:32;;;;;;;3.00;2.47;;;25.80;54.60;;;;;;6171891;23;20426;-83
2021/08/17 09:45:16;;;;;;;3.47;2.10;;;25.90;54.70;;;;;;6172835;23;20455;-83
2021/08/17 09:47:53;;;;;;;2.50;2.30;;;25.90;54.70;;;;;;6198333;23;20368;-83
2021/08/17 09:50:28;;;;;;;4.47;3.10;;;25.90;54.70;;;;;;6173628;23;20462;-84
2021/08/17 09:53:20;;;;;;;3.43;2.93;;;25.90;54.60;;;;;;6199012;23;20371;-82
2021/08/17 09:55:47;;;;;;;3.60;2.73;;;25.90;54.60;;;;;;6198637;23;20379;-84
2021/08/17 09:58:20;;;;;;;3.57;3.00;;;25.90;54.70;;;;;;6198180;23;20371;-83
2021/08/17 10:00:47;;;;;;;2.50;2.30;;;25.90;54.60;;;;;;6172028;23;20450;-83
2021/08/17 10:03:17;;;;;;;4.23;2.73;;;25.90;54.60;;;;;;6199075;23;20481;-83
2021/08/17 10:05:43;;;;;;;3.90;3.03;;;25.90;54.50;;;;;;6172779;23;20389;-83
2021/08/17 10:11:31;;;;;;;3.97;3.40;;;25.90;54.30;;;;;;6199547;23;20493;-83
2021/08/17 10:13:57;;;;;;;4.10;3.40;;;25.80;54.20;;;;;;6173586;23;20390;-83
2021/08/17 10:16:23;;;;;;;4.70;3.60;;;25.80;54.00;;;;;;6172733;23;20380;-83
2021/08/17 10:18:49;;;;;;;4.47;3.63;;;25.80;54.00;;;;;;6200191;23;20375;-83
2021/08/17 10:21:17;;;;;;;5.27;4.00;;;25.80;53.90;;;;;;6199541;23;20147;-83
2021/08/17 10:23:44;;;;;;;4.80;3.50;;;25.80;53.80;;;;;;6173030;23;20155;-83
2021/08/17 10:26:29;;;;;;;4.57;3.00;;;25.80;53.60;;;;;;6200317;23;20375;-83
2021/08/17 10:28:55;;;;;;;4.10;3.10;;;25.80;54.00;;;;;;6172344;23;20379;-83
2021/08/17 10:31:31;;;;;;;5.17;4.33;;;25.80;53.30;;;;;;6172697;23;20419;-83
2021/08/17 10:34:11;;;;;;;7.30;4.80;;;25.80;53.40;;;;;;6172268;23;20405;-83
2021/08/17 10:36:45;;;;;;;6.50;4.40;;;25.80;53.20;;;;;;6199615;23;20362;-83
2021/08/17 10:39:16;;;;;;;4.70;3.80;;;25.80;53.30;;;;;;6173239;23;20389;-83
2021/08/17 10:41:42;;;;;;;6.50;4.00;;;25.80;53.30;;;;;;6172762;23;20395;-83
2021/08/17 10:44:11;;;;;;;5.93;5.13;;;25.70;53.10;;;;;;6200168;23;20379;-83
2021/08/17 10:46:52;;;;;;;6.03;4.60;;;25.70;52.90;;;;;;6174089;23;20391;-83
2021/08/17 10:49:30;;;;;;;8.17;4.60;;;25.70;52.40;;;;;;6173185;23;20385;-83
2021/08/17 10:52:07;;;;;;;5.40;4.67;;;25.70;52.50;;;;;;6173212;23;20461;-83
2021/08/17 10:54:35;;;;;;;7.53;5.27;;;25.70;52.40;;;;;;6173735;23;20442;-83
2021/08/17 10:57:27;;;;;;;5.43;4.47;;;25.70;52.40;;;;;;6174492;23;20842;-83
2021/08/17 10:59:53;;;;;;;4.97;4.47;;;25.70;52.40;;;;;;6193850;23;20526;-83
2021/08/17 11:02:23;;;;;;;5.50;4.00;;;25.70;52.10;;;;;;6200193;23;20391;-83
2021/08/17 11:04:50;;;;;;;5.10;4.17;;;25.70;52.00;;;;;;6198646;23;20163;-83
2021/08/17 11:07:31;;;;;;;4.57;3.93;;;25.70;52.10;;;;;;6199548;23;20371;-83
2021/08/17 11:09:58;;;;;;;6.93;5.10;;;25.70;51.80;;;;;;6173641;23;20379;-83
2021/08/17 11:12:33;;;;;;;6.47;4.60;;;25.60;52.00;;;;;;6199094;23;20446;-83
2021/08/17 11:14:59;;;;;;;5.83;4.60;;;25.60;51.80;;;;;;6172820;23;20379;-83
2021/08/17 11:17:25;;;;;;;5.40;4.60;;;25.60;51.50;;;;;;6199926;23;20371;-83
2021/08/17 11:19:53;;;;;;;7.07;4.67;;;25.60;51.60;;;;;;6173427;23;20383;-83
2021/08/17 11:22:26;;;;;;;4.93;4.50;;;25.60;51.40;;;;;;6199220;23;20159;-83
2021/08/17 11:24:56;;;;;;;5.70;5.07;;;25.60;51.60;;;;;;6172896;23;20387;-83
2021/08/17 11:27:26;;;;;;;7.60;5.13;;;25.60;51.50;;;;;;6173292;23;20387;-83
2021/08/17 11:30:05;;;;;;;5.80;5.10;;;25.60;51.20;;;;;;6175613;23;20795;-83
2021/08/17 11:32:35;;;;;;;5.53;4.50;;;25.60;51.20;;;;;;6175571;23;20426;-83
2021/08/17 11:35:09;;;;;;;5.63;4.53;;;25.60;51.30;;;;;;6174215;23;20379;-83
2021/08/17 11:37:38;;;;;;;6.57;5.30;;;25.60;51.20;;;;;;6201317;23;20355;-83
2021/08/17 11:40:06;;;;;;;5.63;5.13;;;25.50;51.10;;;;;;6201449;23;20836;-83
2021/08/17 11:42:34;;;;;;;4.70;4.17;;;25.50;51.10;;;;;;6174975;23;20398;-83
2021/08/17 11:45:03;;;;;;;6.50;5.20;;;25.50;50.90;;;;;;6201913;23;20457;-83
2021/08/17 11:47:30;;;;;;;5.13;4.40;;;25.50;50.70;;;;;;6200977;23;20438;-83
2021/08/17 11:49:58;;;;;;;5.80;4.97;;;25.50;50.90;;;;;;6200971;23;20571;-83
2021/08/17 11:52:27;;;;;;;6.20;5.23;;;25.50;51.10;;;;;;6175301;23;20426;-83
2021/08/17 11:55:03;;;;;;;5.60;4.90;;;25.50;50.80;;;;;;6200302;23;20371;-83
2021/08/17 11:57:34;;;;;;;6.33;5.10;;;25.50;50.80;;;;;;6176051;23;20379;-83
2021/08/17 12:00:12;;;;;;;7.63;4.83;;;25.50;50.70;;;;;;6174557;23;20379;-83
2021/08/17 12:02:53;;;;;;;6.87;5.10;;;25.50;50.40;;;;;;6174173;23;20383;-83
2021/08/17 12:05:22;;;;;;;6.47;4.70;;;25.50;50.60;;;;;;6175761;23;20944;-83
2021/08/17 12:07:50;;;;;;;6.17;4.40;;;25.50;50.60;;;;;;6174149;23;20379;-83
2021/08/17 12:10:20;;;;;;;5.13;4.47;;;25.50;50.60;;;;;;6201164;23;20462;-83
2021/08/17 12:13:07;;;;;;;6.63;4.90;;;25.50;50.60;;;;;;6200696;23;20407;-83
2021/08/17 12:15:42;;;;;;;4.97;4.40;;;25.50;50.70;;;;;;6183102;23;20430;-82
2021/08/17 12:18:17;;;;;;;6.57;4.90;;;25.50;50.90;;;;;;6209659;23;20720;-82
2021/08/17 12:21:10;;;;;;;6.73;6.03;;;25.50;50.60;;;;;;6183929;23;20409;-82
2021/08/17 12:23:44;;;;;;;6.90;5.60;;;25.50;50.70;;;;;;6066421;23;20378;-82
2021/08/17 12:26:43;;;;;;;6.67;4.93;;;25.50;50.70;;;;;;6090088;23;20386;-82
2021/08/17 12:29:14;;;;;;;5.47;4.80;;;25.50;50.60;;;;;;6087877;23;20387;-82
2021/08/17 12:31:44;;;;;;;6.23;4.83;;;25.40;50.60;;;;;;6089382;23;20422;-82
2021/08/17 12:34:11;;;;;;;5.50;4.50;;;25.40;50.20;;;;;;6043195;23;20383;-82
2021/08/17 12:36:49;;;;;;;6.67;4.50;;;25.40;50.50;;;;;;6090017;23;20370;-82
2021/08/17 12:39:35;;;;;;;6.50;5.30;;;25.40;50.30;;;;;;6089366;23;20834;-82
2021/08/17 12:42:06;;;;;;;5.10;4.37;;;25.40;50.00;;;;;;6067091;23;20383;-82
2021/08/17 12:44:34;;;;;;;6.10;5.50;;;25.40;50.00;;;;;;6090245;23;20367;-82
2021/08/17 12:47:14;;;;;;;5.50;4.90;;;25.40;50.10;;;;;;6089508;23;20383;-82
2021/08/17 12:50:09;;;;;;;5.83;5.10;;;25.40;50.30;;;;;;6088691;23;20378;-82
2021/08/17 12:52:55;;;;;;;6.10;5.13;;;25.40;50.30;;;;;;6037233;23;20427;-82
2021/08/17 12:55:27;;;;;;;6.20;5.07;;;25.40;50.30;;;;;;5949324;24;20447;-82
2021/08/17 12:57:56;;;;;;;7.03;5.50;;;25.40;50.10;;;;;;5926107;24;20392;-82
2021/08/17 13:00:30;;;;;;;8.27;4.80;;;25.40;50.40;;;;;;5973048;24;20389;-82
2021/08/17 13:02:56;;;;;;;6.90;4.60;;;25.40;50.20;;;;;;6006666;23;20385;-82
2021/08/17 13:05:23;;;;;;;8.67;5.23;;;25.40;50.10;;;;;;6031589;23;20442;-82
2021/08/17 13:07:49;;;;;;;5.53;5.00;;;25.30;50.00;;;;;;6032103;23;20385;-82
2021/08/17 13:10:21;;;;;;;6.27;5.13;;;25.40;50.00;;;;;;6031811;23;20381;-82